Time;durP1;ratioP1;P1;durP2;ratioP2;P2;SDS_P1;SDS_P2;PMS_P1;PMS_P2;Temp;Humidity;BMP_temperature;BMP_pressure;BME280_temperature;BME280_humidity;BME280_pressure;Samples;Min_cycle;Max_cycle;Signal;HPM_P1;HPM_P2
2021/06/08 00:01:29;;;;;;;21.65;19.42;;;15.60;99.90;;;;;;5014746;28;20056;-89
2021/06/08 00:03:56;;;;;;;21.42;19.15;;;15.70;99.90;;;;;;5005211;28;20069;-88
2021/06/08 00:06:26;;;;;;;20.23;17.90;;;15.70;99.90;;;;;;5014124;28;20084;-90
2021/06/08 00:08:53;;;;;;;23.25;19.95;;;15.70;99.90;;;;;;4998924;28;20140;-89
2021/06/08 00:11:21;;;;;;;23.05;20.50;;;15.70;99.90;;;;;;4997709;28;20498;-89
2021/06/08 00:13:48;;;;;;;24.33;21.83;;;15.80;99.90;;;;;;4997812;28;20049;-89
2021/06/08 00:16:16;;;;;;;25.52;21.23;;;15.70;99.90;;;;;;4997658;28;20414;-89
2021/06/08 00:18:43;;;;;;;24.67;20.55;;;15.60;99.90;;;;;;4997759;28;20053;-89
2021/06/08 00:21:10;;;;;;;24.10;21.00;;;15.60;99.90;;;;;;4997637;28;20045;-89
2021/06/08 00:23:36;;;;;;;26.27;21.83;;;15.60;99.90;;;;;;4997578;28;20056;-90
2021/06/08 00:26:03;;;;;;;23.00;20.70;;;15.60;99.90;;;;;;4997600;28;20475;-85
2021/06/08 00:28:30;;;;;;;27.42;21.95;;;15.60;99.90;;;;;;4997674;28;20144;-89
2021/06/08 00:30:57;;;;;;;27.88;21.55;;;15.60;99.90;;;;;;4997466;28;20133;-89
2021/06/08 00:33:24;;;;;;;28.70;22.38;;;15.60;99.90;;;;;;4997242;28;20050;-90
2021/06/08 00:35:51;;;;;;;25.00;21.52;;;15.60;99.90;;;;;;4997617;28;20558;-89
2021/06/08 00:38:17;;;;;;;24.55;20.83;;;15.60;99.90;;;;;;4997236;28;20562;-90
2021/06/08 00:40:45;;;;;;;25.20;21.95;;;15.50;99.90;;;;;;4997440;28;20477;-90
2021/06/08 00:43:12;;;;;;;22.90;20.50;;;15.50;99.90;;;;;;4997338;28;20055;-89
2021/06/08 00:45:38;;;;;;;28.90;22.55;;;15.50;99.90;;;;;;4997384;28;20490;-89
2021/06/08 00:48:06;;;;;;;26.40;23.48;;;15.30;99.90;;;;;;4997185;28;20060;-89
2021/06/08 00:50:34;;;;;;;30.15;24.60;;;15.30;99.90;;;;;;4997628;28;20058;-90
2021/06/08 00:53:01;;;;;;;29.83;25.83;;;15.30;99.90;;;;;;4996901;28;20132;-89
2021/06/08 00:55:28;;;;;;;28.23;22.67;;;15.20;99.90;;;;;;4997352;28;20129;-89
2021/06/08 00:57:54;;;;;;;27.45;23.65;;;15.20;99.90;;;;;;4997610;28;20057;-89
2021/06/08 01:00:21;;;;;;;28.70;23.38;;;15.30;99.90;;;;;;4999394;28;20053;-90
2021/06/08 01:02:49;;;;;;;33.03;25.38;;;15.30;99.90;;;;;;4997295;28;20054;-89
2021/06/08 01:05:17;;;;;;;30.92;24.23;;;15.40;99.90;;;;;;4996940;28;20080;-90
2021/06/08 01:07:44;;;;;;;26.55;21.92;;;15.40;99.90;;;;;;4997283;28;20053;-89
2021/06/08 01:10:12;;;;;;;26.90;22.63;;;15.50;99.90;;;;;;4997103;28;20092;-89
2021/06/08 01:12:39;;;;;;;25.13;22.05;;;15.50;99.90;;;;;;4996889;28;20069;-89
2021/06/08 01:15:07;;;;;;;29.60;23.60;;;15.50;99.90;;;;;;4996877;28;20053;-90
2021/06/08 01:17:34;;;;;;;26.65;22.25;;;15.50;99.90;;;;;;4996796;28;20521;-89
2021/06/08 01:20:02;;;;;;;29.25;22.70;;;15.60;99.90;;;;;;4998795;28;20041;-89
2021/06/08 01:22:29;;;;;;;25.73;22.83;;;15.60;99.90;;;;;;5026979;28;20064;-90
2021/06/08 01:24:56;;;;;;;37.67;23.25;;;15.60;99.90;;;;;;5022604;28;20056;-90
2021/06/08 01:27:23;;;;;;;27.95;22.77;;;15.60;99.90;;;;;;5006054;28;20520;-89
2021/06/08 01:29:52;;;;;;;26.95;22.08;;;15.60;99.90;;;;;;5020508;28;20046;-90
2021/06/08 01:32:24;;;;;;;26.20;23.42;;;15.70;99.90;;;;;;5003146;28;20058;-90
2021/06/08 01:34:53;;;;;;;26.25;22.50;;;15.70;99.90;;;;;;5003427;28;20072;-89
2021/06/08 01:37:21;;;;;;;26.90;22.05;;;15.70;99.90;;;;;;5003264;28;20154;-89
2021/06/08 01:39:48;;;;;;;24.85;22.27;;;15.60;99.90;;;;;;5003382;28;20042;-90
2021/06/08 01:42:16;;;;;;;26.42;21.80;;;15.60;99.90;;;;;;5003050;28;20057;-90
2021/06/08 01:44:45;;;;;;;29.08;21.98;;;15.60;99.90;;;;;;5003295;28;20042;-90
2021/06/08 01:47:13;;;;;;;28.15;24.15;;;15.70;99.90;;;;;;5003159;28;20079;-89
2021/06/08 01:49:40;;;;;;;25.58;22.75;;;15.70;99.90;;;;;;5002996;28;20054;-90
2021/06/08 01:52:46;;;;;;;28.77;23.40;;;15.70;99.90;;;;;;5019810;28;20145;-90
2021/06/08 01:55:20;;;;;;;26.17;22.83;;;15.70;99.90;;;;;;5019065;28;20054;-89
2021/06/08 01:57:54;;;;;;;27.13;24.23;;;15.60;99.90;;;;;;5003133;28;20141;-89
2021/06/08 02:00:39;;;;;;;26.42;22.45;;;15.70;99.90;;;;;;5003052;28;20569;-90
2021/06/08 02:03:37;;;;;;;25.80;22.88;;;15.70;99.90;;;;;;5002560;28;20056;-89
2021/06/08 02:06:10;;;;;;;26.02;22.33;;;15.70;99.90;;;;;;5003102;28;20132;-89
2021/06/08 02:09:11;;;;;;;23.97;21.13;;;15.70;99.90;;;;;;5003715;28;20049;-89
2021/06/08 02:12:04;;;;;;;26.95;21.90;;;15.70;99.90;;;;;;5004902;28;20149;-90
2021/06/08 02:15:02;;;;;;;26.80;22.77;;;15.70;99.90;;;;;;5004849;28;20073;-90
2021/06/08 02:17:39;;;;;;;25.08;22.17;;;15.70;99.90;;;;;;4998370;28;20042;-90
2021/06/08 02:20:10;;;;;;;24.25;21.65;;;15.70;99.90;;;;;;5002859;28;20060;-89
2021/06/08 02:22:42;;;;;;;24.83;22.17;;;15.70;99.90;;;;;;5019878;28;20433;-89
2021/06/08 02:25:11;;;;;;;30.45;23.92;;;15.70;99.90;;;;;;5019672;28;20060;-89
2021/06/08 02:27:39;;;;;;;26.88;22.80;;;15.70;99.90;;;;;;5002753;28;20395;-89
2021/06/08 02:30:07;;;;;;;29.20;24.02;;;15.70;99.90;;;;;;5002700;28;20525;-89
2021/06/08 02:32:35;;;;;;;29.17;23.30;;;15.70;99.90;;;;;;5016382;28;20486;-89
2021/06/08 02:35:02;;;;;;;26.42;22.70;;;15.70;99.90;;;;;;4999491;28;20129;-89
2021/06/08 02:37:30;;;;;;;31.52;23.75;;;15.70;99.90;;;;;;4999756;28;20056;-88
2021/06/08 02:39:57;;;;;;;27.05;22.55;;;15.70;99.90;;;;;;5000158;28;20056;-89
2021/06/08 02:42:24;;;;;;;27.23;23.00;;;15.70;99.90;;;;;;5034640;28;20372;-89
2021/06/08 02:44:53;;;;;;;26.80;23.27;;;15.70;99.90;;;;;;5010811;28;20101;-89
2021/06/08 02:47:21;;;;;;;27.10;24.17;;;15.70;99.90;;;;;;5016574;28;20081;-90
2021/06/08 02:49:48;;;;;;;26.08;22.65;;;15.60;99.90;;;;;;4999496;28;20426;-89
2021/06/08 02:52:18;;;;;;;25.98;23.27;;;15.70;99.90;;;;;;4998934;28;20041;-89
2021/06/08 02:54:46;;;;;;;30.30;23.52;;;15.70;99.90;;;;;;5016275;28;20483;-88
2021/06/08 02:57:13;;;;;;;28.13;23.45;;;15.60;99.90;;;;;;4998769;28;20056;-89
2021/06/08 02:59:42;;;;;;;30.35;24.25;;;15.70;99.90;;;;;;4999177;28;20053;-89
2021/06/08 03:02:12;;;;;;;26.10;23.38;;;15.70;99.90;;;;;;4999190;28;20060;-89
2021/06/08 03:04:51;;;;;;;34.42;25.20;;;15.70;99.90;;;;;;4998970;28;20054;-89
2021/06/08 03:07:21;;;;;;;26.08;23.17;;;15.70;99.90;;;;;;5016240;28;20050;-89
2021/06/08 03:10:07;;;;;;;28.38;23.13;;;15.70;99.90;;;;;;4998969;28;20053;-90
2021/06/08 03:12:46;;;;;;;26.25;23.23;;;15.70;99.90;;;;;;5016001;28;20565;-89
2021/06/08 03:15:15;;;;;;;26.65;23.67;;;15.80;99.90;;;;;;4998986;28;20060;-89
2021/06/08 03:17:44;;;;;;;25.30;22.27;;;15.80;99.90;;;;;;5016805;28;20486;-90
2021/06/08 03:20:24;;;;;;;25.25;22.45;;;15.80;99.90;;;;;;4998888;28;20136;-89
2021/06/08 03:22:53;;;;;;;25.20;22.15;;;15.70;99.90;;;;;;4998697;28;20054;-89
2021/06/08 03:25:23;;;;;;;27.33;22.90;;;15.80;99.90;;;;;;4998768;28;20070;-90
2021/06/08 03:27:52;;;;;;;29.25;22.00;;;15.80;99.90;;;;;;4998548;28;20054;-89
2021/06/08 03:30:21;;;;;;;28.35;22.42;;;15.80;99.90;;;;;;4998743;28;20067;-90
2021/06/08 03:32:50;;;;;;;29.20;22.88;;;15.80;99.90;;;;;;4998906;28;20060;-89
2021/06/08 03:35:17;;;;;;;26.70;22.73;;;15.80;99.90;;;;;;4999172;28;20081;-89
2021/06/08 03:37:44;;;;;;;25.88;23.05;;;15.80;99.90;;;;;;4998856;28;20046;-89
2021/06/08 03:40:13;;;;;;;27.40;24.00;;;15.80;99.90;;;;;;5015729;28;20057;-89
2021/06/08 03:42:42;;;;;;;29.17;23.13;;;15.80;99.90;;;;;;4998596;28;20136;-90
2021/06/08 03:45:13;;;;;;;28.27;25.23;;;15.90;99.90;;;;;;4998388;28;20058;-89
2021/06/08 03:47:45;;;;;;;28.50;24.63;;;15.90;99.90;;;;;;4998581;28;20102;-89
2021/06/08 03:50:15;;;;;;;28.63;25.58;;;15.90;99.90;;;;;;5015460;28;20054;-90
2021/06/08 03:52:51;;;;;;;27.48;23.83;;;16.00;99.90;;;;;;5015175;28;20089;-89
2021/06/08 03:55:22;;;;;;;28.55;22.33;;;16.00;99.90;;;;;;5015697;28;20050;-88
2021/06/08 03:57:52;;;;;;;27.13;22.75;;;16.00;99.90;;;;;;4998550;28;20499;-90
2021/06/08 04:00:24;;;;;;;27.80;21.58;;;16.20;99.90;;;;;;5011219;28;20089;-89
2021/06/08 04:02:52;;;;;;;30.23;22.98;;;16.20;99.90;;;;;;5027677;28;20136;-89
2021/06/08 04:05:19;;;;;;;27.50;22.45;;;16.20;99.90;;;;;;4997568;28;20421;-89
2021/06/08 04:07:47;;;;;;;24.90;22.23;;;16.30;99.90;;;;;;5015111;28;20057;-90
2021/06/08 04:10:20;;;;;;;24.25;20.27;;;16.30;99.90;;;;;;4998446;28;20085;-89
2021/06/08 04:12:48;;;;;;;21.58;19.15;;;16.50;99.90;;;;;;4997362;28;20089;-89
2021/06/08 04:15:16;;;;;;;29.35;22.65;;;16.60;99.90;;;;;;4997452;28;20053;-89
2021/06/08 04:17:43;;;;;;;28.38;23.08;;;16.70;99.90;;;;;;4997489;28;20124;-89
2021/06/08 04:20:12;;;;;;;29.08;21.60;;;16.80;99.90;;;;;;5014847;28;20050;-89
2021/06/08 04:22:44;;;;;;;23.30;20.83;;;16.80;99.90;;;;;;4997527;28;20050;-89
2021/06/08 04:25:11;;;;;;;22.80;20.40;;;17.00;99.90;;;;;;4996915;28;20045;-90
2021/06/08 04:27:38;;;;;;;25.13;20.63;;;17.20;99.90;;;;;;4997385;28;20536;-89
2021/06/08 04:30:07;;;;;;;24.10;21.38;;;17.40;99.90;;;;;;4997582;28;20140;-89
2021/06/08 04:32:35;;;;;;;26.63;21.48;;;17.80;99.90;;;;;;4997180;28;20050;-89
2021/06/08 04:35:05;;;;;;;25.80;22.02;;;17.90;99.90;;;;;;4997201;28;20045;-90
2021/06/08 04:37:32;;;;;;;25.45;20.92;;;18.00;99.90;;;;;;4997388;28;20056;-89
2021/06/08 04:39:59;;;;;;;27.50;21.90;;;18.00;99.90;;;;;;4997692;28;20060;-90
2021/06/08 04:42:26;;;;;;;24.35;21.75;;;18.00;99.90;;;;;;4997474;28;20084;-90
2021/06/08 04:44:52;;;;;;;27.38;22.75;;;17.90;99.90;;;;;;4997012;28;20056;-90
2021/06/08 04:47:20;;;;;;;28.50;21.40;;;17.90;99.90;;;;;;4997061;28;20054;-90
2021/06/08 04:49:48;;;;;;;28.58;22.58;;;18.10;99.90;;;;;;4997138;28;20136;-90
2021/06/08 04:52:16;;;;;;;24.85;21.65;;;18.20;99.90;;;;;;4996853;28;20053;-90
2021/06/08 04:54:43;;;;;;;27.73;22.38;;;18.40;99.90;;;;;;4996700;28;20425;-89
2021/06/08 04:57:12;;;;;;;26.65;22.33;;;18.50;99.90;;;;;;4996836;28;20054;-90
2021/06/08 04:59:53;;;;;;;24.10;20.25;;;18.60;99.90;;;;;;4997002;28;20057;-90
2021/06/08 05:02:38;;;;;;;27.13;20.42;;;18.90;99.90;;;;;;4996892;28;20052;-90
2021/06/08 05:05:16;;;;;;;29.05;22.20;;;19.00;99.90;;;;;;4996754;28;20085;-90
2021/06/08 05:07:54;;;;;;;25.13;21.17;;;18.70;99.90;;;;;;5014339;28;20084;-91
2021/06/08 05:10:22;;;;;;;26.58;21.08;;;18.70;99.90;;;;;;4996710;28;20045;-90
2021/06/08 05:12:51;;;;;;;26.45;20.52;;;18.70;99.90;;;;;;5002300;28;20132;-91
2021/06/08 05:15:19;;;;;;;24.48;19.60;;;18.50;99.90;;;;;;5004817;28;20056;-91
2021/06/08 05:17:47;;;;;;;26.00;20.63;;;18.60;99.90;;;;;;4981468;28;20133;-91
2021/06/08 05:20:16;;;;;;;23.75;18.50;;;18.60;99.90;;;;;;4999659;28;20050;-89
2021/06/08 05:22:45;;;;;;;23.25;19.38;;;18.70;99.90;;;;;;4984385;28;20057;-90
2021/06/08 05:25:12;;;;;;;23.35;16.13;;;18.70;99.90;;;;;;4976676;28;20062;-90
2021/06/08 05:27:40;;;;;;;17.50;14.95;;;18.80;99.90;;;;;;4977239;28;20054;-90
2021/06/08 05:30:09;;;;;;;17.00;14.00;;;18.80;99.90;;;;;;4976798;28;20102;-90
2021/06/08 05:32:39;;;;;;;15.15;13.60;;;18.90;99.90;;;;;;4976563;28;20137;-89
2021/06/08 05:35:08;;;;;;;15.82;14.07;;;19.00;99.90;;;;;;4975602;28;20076;-90
2021/06/08 05:37:41;;;;;;;17.20;13.40;;;18.90;99.90;;;;;;4976372;28;20511;-90
2021/06/08 05:40:12;;;;;;;19.75;13.85;;;18.90;99.90;;;;;;4975823;28;20052;-90
2021/06/08 05:42:38;;;;;;;16.23;12.10;;;18.90;99.90;;;;;;4974963;28;20418;-90
2021/06/08 05:45:06;;;;;;;17.75;13.00;;;19.10;99.90;;;;;;4975122;28;20422;-90
2021/06/08 05:47:33;;;;;;;16.40;12.77;;;19.10;99.90;;;;;;4976605;28;20503;-90
2021/06/08 05:50:02;;;;;;;14.27;11.45;;;19.30;99.90;;;;;;4977432;28;20062;-90
2021/06/08 05:52:29;;;;;;;15.05;12.05;;;19.60;99.90;;;;;;4977234;28;20062;-91
2021/06/08 05:54:58;;;;;;;13.00;11.70;;;19.50;99.90;;;;;;4976909;28;20096;-91
2021/06/08 05:57:24;;;;;;;13.80;10.27;;;19.80;99.90;;;;;;4977006;28;20495;-90
2021/06/08 05:59:51;;;;;;;15.02;11.18;;;20.00;99.90;;;;;;4976965;28;20051;-89
2021/06/08 06:02:19;;;;;;;12.85;11.45;;;20.40;99.90;;;;;;4977059;28;20133;-90
2021/06/08 06:04:46;;;;;;;12.13;10.55;;;20.20;99.90;;;;;;4977163;28;20047;-90
2021/06/08 06:07:15;;;;;;;12.35;10.13;;;20.10;99.90;;;;;;4977967;28;20046;-90
2021/06/08 06:09:42;;;;;;;14.10;11.13;;;20.20;99.90;;;;;;4980824;28;20073;-90
2021/06/08 06:12:17;;;;;;;14.20;11.18;;;20.40;99.90;;;;;;4981593;28;20140;-90
2021/06/08 06:14:47;;;;;;;14.52;11.52;;;20.50;99.90;;;;;;4980551;28;20569;-90
2021/06/08 06:17:15;;;;;;;14.70;12.18;;;20.30;99.90;;;;;;4980064;28;20114;-90
2021/06/08 06:19:43;;;;;;;14.32;12.70;;;20.20;99.90;;;;;;4980551;28;20138;-90
2021/06/08 06:22:10;;;;;;;14.52;13.02;;;20.10;99.90;;;;;;4981126;28;20145;-89
2021/06/08 06:24:37;;;;;;;16.52;14.15;;;20.00;99.90;;;;;;4980105;28;20050;-89
2021/06/08 06:27:05;;;;;;;20.65;14.65;;;20.00;99.90;;;;;;4979630;28;20058;-88
2021/06/08 06:29:32;;;;;;;19.40;14.93;;;20.00;99.90;;;;;;4980000;28;20077;-90
2021/06/08 06:31:59;;;;;;;18.50;15.18;;;20.00;99.90;;;;;;4979933;28;20046;-90
2021/06/08 06:34:26;;;;;;;16.08;13.45;;;20.00;99.90;;;;;;4979632;28;20054;-89
2021/06/08 06:36:56;;;;;;;17.35;13.23;;;20.60;99.90;;;;;;4984886;28;20042;-90
2021/06/08 06:39:26;;;;;;;18.13;13.57;;;21.40;99.90;;;;;;4996139;28;20058;-88
2021/06/08 06:41:56;;;;;;;14.85;12.00;;;22.20;99.90;;;;;;4980897;28;20081;-89
2021/06/08 06:44:25;;;;;;;16.58;11.13;;;23.40;99.90;;;;;;4979755;28;20081;-87
2021/06/08 06:46:53;;;;;;;13.20;10.45;;;24.50;99.90;;;;;;4996378;28;20061;-90
2021/06/08 06:49:21;;;;;;;12.43;11.13;;;25.00;99.90;;;;;;4979673;28;20116;-90
2021/06/08 06:51:48;;;;;;;13.77;11.68;;;24.80;99.90;;;;;;4996505;28;20078;-90
2021/06/08 06:54:17;;;;;;;13.00;11.38;;;24.20;99.90;;;;;;4979250;28;20061;-88
2021/06/08 06:56:44;;;;;;;13.60;12.20;;;24.10;99.90;;;;;;4996309;28;20050;-88
2021/06/08 06:59:11;;;;;;;15.82;13.18;;;23.70;99.90;;;;;;4979009;28;20056;-89
2021/06/08 07:01:41;;;;;;;14.18;12.77;;;23.00;99.90;;;;;;4979953;28;20064;-89
2021/06/08 07:04:10;;;;;;;13.13;11.50;;;22.60;99.90;;;;;;4979583;28;20070;-89
2021/06/08 07:06:39;;;;;;;18.05;11.60;;;22.40;99.90;;;;;;4978947;28;20051;-89
2021/06/08 07:09:06;;;;;;;12.98;11.00;;;22.30;99.90;;;;;;4978981;28;20133;-88
2021/06/08 07:11:34;;;;;;;15.13;12.20;;;22.10;99.90;;;;;;4995878;28;20058;-89
2021/06/08 07:14:02;;;;;;;17.13;12.40;;;21.60;99.90;;;;;;4996046;28;20114;-90
2021/06/08 07:16:29;;;;;;;16.92;12.70;;;21.50;99.90;;;;;;4978819;28;20089;-89
2021/06/08 07:18:58;;;;;;;13.40;12.00;;;21.60;99.90;;;;;;4978564;28;20046;-89
2021/06/08 07:21:25;;;;;;;16.05;13.25;;;21.70;99.90;;;;;;4975738;28;20416;-89
2021/06/08 07:23:54;;;;;;;18.15;14.27;;;21.70;99.90;;;;;;4978181;28;20042;-89
2021/06/08 07:26:22;;;;;;;13.63;11.98;;;21.60;99.90;;;;;;4978497;28;20132;-87
2021/06/08 07:28:49;;;;;;;12.52;11.00;;;22.20;99.90;;;;;;4978853;28;20495;-89
2021/06/08 07:31:28;;;;;;;12.95;11.65;;;24.30;99.90;;;;;;4978566;28;20491;-88
2021/06/08 07:34:03;;;;;;;15.95;12.48;;;26.20;99.90;;;;;;4994869;28;20506;-90
2021/06/08 07:36:43;;;;;;;14.57;11.93;;;25.90;99.90;;;;;;4978669;28;20057;-89
2021/06/08 07:39:19;;;;;;;16.75;12.25;;;26.30;99.90;;;;;;4994524;28;20113;-89
2021/06/08 07:42:05;;;;;;;14.43;11.75;;;25.90;99.90;;;;;;4978592;28;20105;-90
2021/06/08 07:44:39;;;;;;;12.23;10.98;;;26.00;99.90;;;;;;4995665;28;20125;-86
2021/06/08 07:47:07;;;;;;;11.80;10.60;;;26.20;99.90;;;;;;4994241;28;20050;-89
2021/06/08 07:49:34;;;;;;;14.45;12.65;;;26.20;99.90;;;;;;4994657;28;20046;-90
2021/06/08 07:52:03;;;;;;;15.02;11.88;;;25.60;99.90;;;;;;4978258;28;20051;-92
2021/06/08 07:54:32;;;;;;;14.13;12.25;;;25.10;99.90;;;;;;4978704;28;20056;-89
2021/06/08 07:56:59;;;;;;;19.13;13.32;;;24.80;99.90;;;;;;5012498;28;20030;-90
2021/06/08 07:59:26;;;;;;;12.63;10.35;;;25.00;99.90;;;;;;5003364;28;20072;-89
2021/06/08 08:01:53;;;;;;;12.13;10.40;;;26.10;99.90;;;;;;4978350;28;20053;-90
2021/06/08 08:04:22;;;;;;;19.17;12.32;;;26.70;99.90;;;;;;4995374;28;20042;-89
2021/06/08 08:06:51;;;;;;;14.57;12.05;;;26.70;99.90;;;;;;4977832;28;20050;-90
2021/06/08 08:09:19;;;;;;;13.18;11.77;;;25.70;99.90;;;;;;4977619;28;20130;-90
2021/06/08 08:11:48;;;;;;;16.52;11.93;;;26.00;99.90;;;;;;4977954;28;20058;-90
2021/06/08 08:14:15;;;;;;;15.45;12.07;;;25.80;99.90;;;;;;4993954;28;20046;-90
2021/06/08 08:16:46;;;;;;;15.02;12.07;;;26.00;99.90;;;;;;4977958;28;20049;-89
2021/06/08 08:19:15;;;;;;;13.63;11.43;;;26.30;99.90;;;;;;4977727;28;20061;-87
2021/06/08 08:21:43;;;;;;;13.55;12.07;;;26.60;99.90;;;;;;4978058;28;20050;-89
2021/06/08 08:24:10;;;;;;;15.45;10.90;;;26.60;99.90;;;;;;4977869;28;20050;-89
2021/06/08 08:26:38;;;;;;;13.88;12.18;;;27.40;99.90;;;;;;4977602;28;20053;-87
2021/06/08 08:29:05;;;;;;;13.77;11.80;;;28.10;99.90;;;;;;4977067;28;20058;-90
2021/06/08 08:31:36;;;;;;;11.50;10.38;;;27.60;99.90;;;;;;4995125;28;20096;-90
2021/06/08 08:34:05;;;;;;;14.02;11.75;;;28.50;99.90;;;;;;4979903;28;20053;-90
2021/06/08 08:36:36;;;;;;;15.55;12.48;;;28.40;99.90;;;;;;4995114;28;20204;-91
2021/06/08 08:39:05;;;;;;;14.93;12.43;;;28.00;99.90;;;;;;4993736;28;20414;-89
2021/06/08 08:41:32;;;;;;;18.55;12.18;;;27.40;99.90;;;;;;4977760;28;20050;-90
2021/06/08 08:44:00;;;;;;;17.45;12.23;;;27.60;99.90;;;;;;4977892;28;20047;-90
2021/06/08 08:46:27;;;;;;;16.55;13.18;;;27.60;99.90;;;;;;4977559;28;20142;-88
2021/06/08 08:48:55;;;;;;;16.02;13.07;;;27.30;99.90;;;;;;4977514;28;20054;-89
2021/06/08 08:51:23;;;;;;;21.13;13.63;;;26.80;99.90;;;;;;4977568;28;20046;-89
2021/06/08 08:53:57;;;;;;;16.27;12.63;;;26.80;99.90;;;;;;4977786;28;20414;-90
2021/06/08 08:56:30;;;;;;;12.63;11.10;;;27.50;99.90;;;;;;4977511;28;20054;-90
2021/06/08 08:59:02;;;;;;;;;;;27.50;99.90;;;;;;4993960;28;20050;-91
2021/06/08 09:01:29;;;;;;;11.85;10.60;;;28.50;99.90;;;;;;4978072;28;20330;-88
2021/06/08 09:04:00;;;;;;;14.88;13.10;;;28.30;99.90;;;;;;4994746;28;20227;-89
2021/06/08 09:06:27;;;;;;;13.43;12.02;;;27.90;99.90;;;;;;4994464;28;20054;-90
2021/06/08 09:08:53;;;;;;;14.13;11.68;;;27.80;99.90;;;;;;4977156;28;20043;-90
2021/06/08 09:11:24;;;;;;;12.98;11.57;;;28.00;99.90;;;;;;4977935;28;20093;-88
2021/06/08 09:13:51;;;;;;;14.38;12.40;;;27.70;99.90;;;;;;4995158;28;20343;-87
2021/06/08 09:16:19;;;;;;;15.38;12.50;;;27.50;99.90;;;;;;4994905;28;20126;-87
2021/06/08 09:18:46;;;;;;;15.70;11.63;;;27.80;99.90;;;;;;4996384;28;20097;-87
2021/06/08 09:21:23;;;;;;;16.10;12.35;;;27.40;99.90;;;;;;4994081;28;20057;-90
2021/06/08 09:23:50;;;;;;;15.43;13.82;;;26.80;99.90;;;;;;4976978;28;20106;-91
2021/06/08 09:26:17;;;;;;;17.38;13.57;;;26.50;99.90;;;;;;4977128;28;20590;-91
2021/06/08 09:28:46;;;;;;;12.68;11.38;;;26.30;99.90;;;;;;4977152;28;20410;-91
2021/06/08 09:31:24;;;;;;;13.98;12.63;;;26.30;99.90;;;;;;4977215;28;20081;-89
2021/06/08 09:33:53;;;;;;;17.58;13.85;;;26.40;99.90;;;;;;4977686;28;20050;-89
2021/06/08 09:36:28;;;;;;;15.90;12.80;;;25.60;99.90;;;;;;4993002;28;20054;-91
2021/06/08 09:38:56;;;;;;;14.02;12.63;;;25.20;99.90;;;;;;4993005;28;20081;-89
2021/06/08 09:41:37;;;;;;;14.48;12.50;;;25.30;99.90;;;;;;4994530;28;20049;-90
2021/06/08 09:44:06;;;;;;;16.27;13.60;;;25.80;99.90;;;;;;4980837;28;20074;-92
2021/06/08 09:46:48;;;;;;;17.77;13.00;;;25.50;99.90;;;;;;4996993;28;20166;-91
2021/06/08 09:49:17;;;;;;;15.57;13.32;;;25.40;99.90;;;;;;4980811;28;20203;-91
2021/06/08 09:51:58;;;;;;;14.95;13.43;;;25.30;99.90;;;;;;4980845;28;20050;-91
2021/06/08 09:54:32;;;;;;;16.85;12.75;;;25.20;99.90;;;;;;4980935;28;20060;-93
2021/06/08 09:57:17;;;;;;;14.57;13.10;;;25.40;99.90;;;;;;4980454;28;20140;-91
2021/06/08 09:59:50;;;;;;;13.18;11.60;;;25.50;99.90;;;;;;4998219;28;20057;-91
2021/06/08 10:02:40;;;;;;;15.77;12.32;;;26.00;99.90;;;;;;4997711;28;20038;-92
2021/06/08 10:05:19;;;;;;;17.33;11.55;;;25.80;99.90;;;;;;4980284;28;20058;-89
2021/06/08 10:08:04;;;;;;;13.48;11.95;;;26.40;99.90;;;;;;4980366;28;20057;-91
2021/06/08 10:10:46;;;;;;;12.63;11.25;;;26.10;99.90;;;;;;4980301;28;20046;-92
2021/06/08 10:13:18;;;;;;;15.82;12.32;;;27.30;99.90;;;;;;4996487;28;20065;-89
2021/06/08 10:16:07;;;;;;;11.15;10.05;;;28.30;99.90;;;;;;4996072;28;20054;-92
2021/06/08 10:18:45;;;;;;;13.48;10.27;;;28.80;99.90;;;;;;4980553;28;20057;-89
2021/06/08 10:21:12;;;;;;;12.23;10.48;;;29.60;99.90;;;;;;4980113;28;20054;-90
2021/06/08 10:23:39;;;;;;;12.20;11.05;;;30.40;99.90;;;;;;4980355;28;20042;-90
2021/06/08 10:26:09;;;;;;;12.80;10.52;;;30.80;97.00;;;;;;4997874;28;20065;-88
2021/06/08 10:28:36;;;;;;;10.90;9.80;;;31.00;96.10;;;;;;4981411;28;20085;-89
2021/06/08 10:31:04;;;;;;;12.38;10.77;;;31.20;95.20;;;;;;4998147;28;20080;-89
2021/06/08 10:33:51;;;;;;;11.80;10.18;;;30.40;95.20;;;;;;5002590;28;20042;-90
2021/06/08 10:36:27;;;;;;;11.32;9.23;;;31.50;94.50;;;;;;5002270;28;20065;-86
2021/06/08 10:38:54;;;;;;;10.52;8.52;;;32.80;91.60;;;;;;5000438;28;20058;-89
2021/06/08 10:41:21;;;;;;;9.18;7.68;;;33.40;85.50;;;;;;4978907;28;20414;-90
2021/06/08 10:43:48;;;;;;;8.65;7.85;;;34.40;80.80;;;;;;4996420;28;20082;-89
2021/06/08 10:46:25;;;;;;;9.25;7.78;;;34.80;77.70;;;;;;4980126;28;20479;-93
2021/06/08 10:48:52;;;;;;;8.77;7.90;;;34.40;74.50;;;;;;5007614;23;20054;-84
2021/06/08 10:51:23;;;;;;;8.88;7.80;;;34.30;72.30;;;;;;5010444;28;20508;-87
2021/06/08 10:54:01;;;;;;;9.07;7.75;;;35.00;71.20;;;;;;5011629;28;20080;-85
2021/06/08 10:56:30;;;;;;;7.78;6.95;;;35.50;70.10;;;;;;4989622;28;20050;-84
2021/06/08 10:58:59;;;;;;;10.00;7.20;;;36.00;67.00;;;;;;4980310;28;20119;-83
2021/06/08 11:01:40;;;;;;;11.98;6.18;;;34.30;66.40;;;;;;4981943;28;20073;-84
2021/06/08 11:04:10;;;;;;;9.18;7.32;;;34.50;68.70;;;;;;4978256;28;20091;-85
2021/06/08 11:06:37;;;;;;;7.25;6.53;;;35.10;63.70;;;;;;4974599;28;20066;-85
2021/06/08 11:09:11;;;;;;;9.40;5.60;;;34.60;67.00;;;;;;4975642;28;20659;-84
2021/06/08 11:11:45;;;;;;;8.90;6.32;;;36.00;62.60;;;;;;4974451;28;20047;-84
2021/06/08 11:14:42;;;;;;;5.90;5.40;;;36.00;59.80;;;;;;4974090;28;20054;-83
2021/06/08 11:17:36;;;;;;;7.00;5.85;;;36.90;58.60;;;;;;4973191;28;20074;-84
2021/06/08 11:20:12;;;;;;;6.75;5.43;;;35.90;59.00;;;;;;4972906;28;20077;-84
2021/06/08 11:22:49;;;;;;;8.38;6.28;;;35.30;62.60;;;;;;4974367;28;20062;-84
2021/06/08 11:25:43;;;;;;;6.97;6.38;;;34.30;63.50;;;;;;4971281;28;20082;-83
2021/06/08 11:28:14;;;;;;;;;;;33.80;62.20;;;;;;4972581;28;20065;-85
2021/06/08 11:30:53;;;;;;;6.65;6.18;;;32.70;67.10;;;;;;4991089;28;20293;-84
2021/06/08 11:33:35;;;;;;;12.50;6.30;;;32.50;68.70;;;;;;4971149;28;20082;-85
2021/06/08 11:36:22;;;;;;;7.03;6.40;;;31.70;68.70;;;;;;4972944;28;20081;-85
2021/06/08 11:38:51;;;;;;;6.05;5.50;;;30.50;72.90;;;;;;4975366;28;20085;-85
2021/06/08 11:41:18;;;;;;;7.22;6.28;;;30.10;73.40;;;;;;4973351;28;20046;-85
2021/06/08 11:43:59;;;;;;;6.40;5.80;;;29.90;72.80;;;;;;4980372;28;20062;-84
2021/06/08 11:46:52;;;;;;;12.23;6.40;;;29.50;75.50;;;;;;4972951;28;20047;-85
2021/06/08 11:49:20;;;;;;;13.02;6.65;;;29.00;75.30;;;;;;4966901;28;20078;-85
2021/06/08 11:51:59;;;;;;;6.32;5.82;;;28.80;80.50;;;;;;5003439;28;20453;-86
2021/06/08 11:54:25;;;;;;;7.68;5.80;;;29.20;82.40;;;;;;5003696;28;20066;-85
2021/06/08 11:57:03;;;;;;;6.80;6.20;;;29.10;83.50;;;;;;4999910;28;20050;-85
2021/06/08 11:59:32;;;;;;;6.35;5.75;;;29.20;85.70;;;;;;5010373;23;20475;-85
2021/06/08 12:02:07;;;;;;;9.73;6.25;;;29.10;85.00;;;;;;5000041;28;20050;-86
2021/06/08 12:05:05;;;;;;;6.97;6.38;;;29.00;84.70;;;;;;5000679;28;20050;-86
2021/06/08 12:07:59;;;;;;;8.85;5.85;;;28.30;89.50;;;;;;5001862;28;20136;-83
2021/06/08 12:10:35;;;;;;;6.13;5.57;;;28.00;87.60;;;;;;5021113;28;20054;-85
2021/06/08 12:13:09;;;;;;;8.75;6.35;;;27.70;89.20;;;;;;5009026;28;20129;-83
2021/06/08 12:15:39;;;;;;;6.82;6.22;;;27.40;88.70;;;;;;5008886;28;20064;-85
2021/06/08 12:18:08;;;;;;;6.63;5.55;;;27.40;90.20;;;;;;5025537;28;20398;-84
2021/06/08 12:20:41;;;;;;;9.35;6.57;;;27.30;91.30;;;;;;5009490;28;20080;-84
2021/06/08 12:23:09;;;;;;;7.78;5.80;;;27.50;93.50;;;;;;5011789;28;20046;-83
2021/06/08 12:25:39;;;;;;;8.43;6.45;;;27.60;94.70;;;;;;5011199;28;20092;-84
2021/06/08 12:28:11;;;;;;;7.78;6.13;;;27.70;92.10;;;;;;5010499;28;20073;-83
2021/06/08 12:30:38;;;;;;;8.35;6.50;;;27.60;91.00;;;;;;5010261;28;20046;-84
2021/06/08 12:33:06;;;;;;;7.60;5.85;;;27.50;92.00;;;;;;5010735;28;20076;-84
2021/06/08 12:35:38;;;;;;;6.65;5.82;;;27.20;91.40;;;;;;5029003;28;20045;-83
2021/06/08 12:38:20;;;;;;;7.88;6.18;;;27.40;93.10;;;;;;5010828;28;20540;-83
2021/06/08 12:41:08;;;;;;;5.68;5.28;;;27.20;91.80;;;;;;5010549;28;20046;-84
2021/06/08 12:43:42;;;;;;;7.80;5.88;;;27.40;91.80;;;;;;5008916;28;20077;-83
2021/06/08 12:46:09;;;;;;;7.97;5.90;;;27.40;91.80;;;;;;5027278;28;20069;-83
2021/06/08 12:48:36;;;;;;;7.63;6.25;;;27.20;92.10;;;;;;5020577;23;20414;-93
2021/06/08 12:51:13;;;;;;;9.02;6.18;;;27.30;91.60;;;;;;5018756;28;20060;-95